This is the latest recevied weather packets stored in our database for station/object DG2GGP-11. If no packets are shown the sender has not sent any weather packets the latest 10 day(s).
| Time | Temp. | Humidity | Pressure | Rain* | Wind** | Luminosity | Snow |
|---|---|---|---|---|---|---|---|
| 1776926762 | 7.22° C | 67% | 1027 hPa | 0 mm | - | 30 W/m² | - |
| 1776926162 | 6.67° C | 68% | 1027 hPa | 0 mm | - | 28 W/m² | - |
| 1776925562 | 5.56° C | 71% | 1026.8 hPa | 0 mm | - | 26 W/m² | - |
| 1776924962 | 4.44° C | 73% | 1026.8 hPa | 0 mm | - | 26 W/m² | - |
| 1776924362 | 3.33° C | 77% | 1026.7 hPa | 0 mm | - | 24 W/m² | - |
| 1776923762 | 1.67° C | 82% | 1026.6 hPa | 0 mm | - | 22 W/m² | - |
| 1776923162 | 0° C | 84% | 1026.5 hPa | 0 mm | - | 15 W/m² | - |
| 1776922562 | -0.56° C | 86% | 1026.4 hPa | 0 mm | - | 4 W/m² | - |
| 1776921962 | -1.11° C | 86% | 1026.4 hPa | 0 mm | - | 3 W/m² | - |
| 1776921362 | -1.67° C | 86% | 1026.3 hPa | 0 mm | - | 3 W/m² | - |
| 1776920762 | -2.22° C | 86% | 1026.3 hPa | 0 mm | - | 2 W/m² | - |
| 1776920162 | -2.22° C | 85% | 1026.1 hPa | 0 mm | - | 1 W/m² | - |
| 1776919562 | -2.22° C | 85% | 1025.9 hPa | 0 mm | - | 1 W/m² | - |
| 1776918962 | -2.22° C | 85% | 1025.8 hPa | 0 mm | - | 0 W/m² | - |
| 1776918362 | -2.22° C | 85% | 1025.7 hPa | 0 mm | - | 0 W/m² | - |
| 1776917762 | -2.22° C | 85% | 1025.5 hPa | 0 mm | - | 0 W/m² | - |
| 1776917162 | -2.22° C | 85% | 1025.6 hPa | 0 mm | - | 0 W/m² | - |
| 1776916562 | -1.67° C | 85% | 1025.6 hPa | 0 mm | - | 0 W/m² | - |
| 1776915962 | -1.67° C | 85% | 1025.6 hPa | 0 mm | - | 0 W/m² | - |
| 1776915362 | -1.67° C | 84% | 1025.6 hPa | 0 mm | - | 0 W/m² | - |
| 1776914762 | -1.67° C | 84% | 1025.6 hPa | 0 mm | - | 0 W/m² | - |
| 1776914162 | -1.67° C | 84% | 1025.6 hPa | 0 mm | - | 0 W/m² | - |
| 1776913562 | -1.67° C | 84% | 1025.6 hPa | 0 mm | - | 0 W/m² | - |
| 1776912962 | -1.67° C | 84% | 1025.6 hPa | 0 mm | - | 0 W/m² | - |
| 1776912362 | -1.67° C | 84% | 1025.6 hPa | 0 mm | - | 0 W/m² | - |
* Rain latest hour (hover to see other rain measurements)
** Current wind speed in m/s (hover to see current wind gust speed)